Dongen, Netherlands
Current Conditions -  °F | °C
As of 9:55 AM on Wednesday 22 Oct 2014 (Local Time) from EHGR Reporting Station
Scattered Clouds Scattered Clouds  
Wind Chill: 50°   Ceiling: Unl
Heat Index: 50°   Visibility: 6mi
Dew Point: 43°   Wind: 13mph
Humidity: 76%   Direction: 290°WNW
Pressure: 30.03"   Gusts: NA
Location:  51.63°N, 4.94°E
Report Text: EHGR 220755Z AUTO 29011KT 9999 FEW056 SCT075 10/06 Q1017 BLU 29012G22KT 9999 SCT035 TEMPO 31018G30KT 5000 -SHRA FEW012 SCT017CB
Loading
Personal Weather Stations






























Interactive Weather Map
Tropical Storm Tracking
New forecast layout! Learn more

10-Day Weather Forecast

Advertisements
Track Severe Weather on mobile